Time;durP1;ratioP1;P1;durP2;ratioP2;P2;SDS_P1;SDS_P2;PMS_P1;PMS_P2;Temp;Humidity;BMP_temperature;BMP_pressure;BME280_temperature;BME280_humidity;BME280_pressure;Samples;Min_cycle;Max_cycle;Signal;HPM_P1;HPM_P2
2021/08/17 00:00:55;;;;;;;7.07;5.73;;;13.60;99.90;;;;;;4998504;28;20557;-61
2021/08/17 00:03:21;;;;;;;7.00;5.13;;;13.60;99.90;;;;;;4992775;28;20545;-61
2021/08/17 00:05:46;;;;;;;5.93;5.33;;;13.50;99.90;;;;;;4992668;28;20176;-61
2021/08/17 00:08:12;;;;;;;7.67;5.83;;;13.50;99.90;;;;;;4997735;28;20195;-61
2021/08/17 00:10:38;;;;;;;6.73;5.70;;;13.50;99.90;;;;;;5002929;28;20180;-61
2021/08/17 00:13:03;;;;;;;8.03;5.60;;;13.50;99.90;;;;;;4992573;28;20283;-61
2021/08/17 00:15:29;;;;;;;8.13;6.40;;;13.50;99.90;;;;;;4992693;28;20238;-61
2021/08/17 00:17:55;;;;;;;7.07;6.20;;;13.50;99.90;;;;;;4992641;28;20427;-61
2021/08/17 00:20:21;;;;;;;6.80;6.10;;;13.50;99.90;;;;;;4992310;28;20171;-61
2021/08/17 00:22:47;;;;;;;7.63;6.30;;;13.40;99.90;;;;;;4992665;28;20681;-61
2021/08/17 00:25:12;;;;;;;9.00;6.10;;;13.40;99.90;;;;;;4992700;28;20419;-60
2021/08/17 00:27:38;;;;;;;7.20;6.50;;;13.30;99.90;;;;;;4992660;28;20175;-61
2021/08/17 00:30:05;;;;;;;9.70;6.37;;;13.30;99.90;;;;;;5000346;28;20188;-61
2021/08/17 00:32:31;;;;;;;7.07;6.17;;;13.20;99.90;;;;;;5011973;28;20213;-61
2021/08/17 00:34:57;;;;;;;9.50;5.83;;;13.30;99.90;;;;;;5012113;28;20418;-61
2021/08/17 00:37:22;;;;;;;7.73;5.97;;;13.30;99.90;;;;;;5012101;28;20425;-61
2021/08/17 00:39:48;;;;;;;6.87;5.90;;;13.40;99.90;;;;;;5011895;28;20170;-61
2021/08/17 00:42:14;;;;;;;10.40;6.93;;;13.30;99.90;;;;;;5011697;28;20268;-61
2021/08/17 00:44:39;;;;;;;6.40;5.80;;;13.40;99.90;;;;;;5011954;28;20265;-61
2021/08/17 00:47:05;;;;;;;7.10;5.97;;;13.50;99.90;;;;;;5012057;28;20255;-61
2021/08/17 00:49:31;;;;;;;6.27;5.60;;;13.50;99.90;;;;;;5011696;28;20171;-61
2021/08/17 00:52:04;;;;;;;6.37;5.60;;;13.60;99.90;;;;;;5009641;28;20210;-61
2021/08/17 00:54:30;;;;;;;6.80;5.97;;;13.70;99.90;;;;;;4994400;28;20428;-61
2021/08/17 00:56:56;;;;;;;5.63;4.83;;;13.70;99.90;;;;;;4995932;28;20940;-61
2021/08/17 00:59:22;;;;;;;5.30;4.80;;;13.60;99.90;;;;;;4992968;28;20206;-61
2021/08/17 01:01:48;;;;;;;7.53;5.97;;;13.70;99.90;;;;;;4993440;28;20887;-61
2021/08/17 01:04:13;;;;;;;5.40;4.90;;;13.70;99.90;;;;;;5004048;28;20202;-61
2021/08/17 01:06:41;;;;;;;8.00;4.93;;;13.70;99.90;;;;;;5011639;28;20239;-61
2021/08/17 01:09:08;;;;;;;9.70;5.50;;;13.70;99.90;;;;;;5011572;28;20194;-61
2021/08/17 01:11:42;;;;;;;5.80;5.20;;;13.60;99.90;;;;;;4992923;28;20515;-61
2021/08/17 01:14:07;;;;;;;7.90;5.83;;;13.50;99.90;;;;;;5011793;28;20433;-61
2021/08/17 01:16:33;;;;;;;7.10;5.33;;;13.50;99.90;;;;;;5011490;28;20436;-60
2021/08/17 01:18:58;;;;;;;5.57;4.87;;;13.40;99.90;;;;;;5014083;28;20668;-61
2021/08/17 01:21:24;;;;;;;7.90;5.60;;;13.20;99.90;;;;;;5015507;28;20178;-61
2021/08/17 01:23:50;;;;;;;7.67;4.90;;;13.20;99.90;;;;;;5015303;28;20207;-60
2021/08/17 01:26:15;;;;;;;6.47;5.47;;;13.10;99.90;;;;;;5007927;28;20178;-61
2021/08/17 01:28:41;;;;;;;7.20;5.47;;;12.90;99.90;;;;;;4995418;28;20427;-61
2021/08/17 01:31:08;;;;;;;9.47;6.77;;;12.80;99.90;;;;;;4996018;28;20554;-61
2021/08/17 01:33:34;;;;;;;7.67;5.60;;;12.80;99.90;;;;;;4995493;28;20215;-61
2021/08/17 01:36:03;;;;;;;6.83;5.60;;;12.80;99.90;;;;;;4995534;28;20501;-61
2021/08/17 01:38:29;;;;;;;7.07;4.90;;;12.80;99.90;;;;;;4995301;28;20497;-61
2021/08/17 01:40:55;;;;;;;7.70;5.73;;;12.70;99.90;;;;;;4995492;28;20514;-61
2021/08/17 01:43:20;;;;;;;9.40;5.63;;;12.60;99.90;;;;;;4995496;28;20211;-61
2021/08/17 01:45:54;;;;;;;7.53;5.20;;;12.60;99.90;;;;;;4995433;28;20482;-61
2021/08/17 01:48:19;;;;;;;8.10;6.30;;;12.60;99.90;;;;;;4995244;28;20179;-61
2021/08/17 01:50:45;;;;;;;7.27;5.43;;;12.60;99.90;;;;;;4977765;28;20519;-61
2021/08/17 01:53:10;;;;;;;6.70;4.53;;;12.50;99.90;;;;;;5011310;28;20250;-61
2021/08/17 01:55:36;;;;;;;6.33;5.70;;;12.60;99.90;;;;;;5014516;28;20209;-60
2021/08/17 01:58:02;;;;;;;7.80;6.33;;;12.50;99.90;;;;;;5014488;28;20513;-61
2021/08/17 02:00:28;;;;;;;6.30;5.30;;;12.60;99.90;;;;;;5010708;28;20540;-61
2021/08/17 02:02:54;;;;;;;8.03;5.50;;;12.50;99.90;;;;;;4995009;28;20446;-61
2021/08/17 02:05:21;;;;;;;6.00;5.40;;;12.50;99.90;;;;;;5014599;28;20250;-61
2021/08/17 02:07:49;;;;;;;11.60;5.97;;;12.40;99.90;;;;;;4995823;28;20234;-60
2021/08/17 02:10:15;;;;;;;8.47;6.90;;;12.50;99.90;;;;;;5000840;28;20432;-61
2021/08/17 02:12:40;;;;;;;6.80;4.80;;;12.50;99.90;;;;;;5014418;28;20902;-61
2021/08/17 02:15:06;;;;;;;6.07;5.47;;;12.40;99.90;;;;;;5005161;28;20254;-61
2021/08/17 02:17:31;;;;;;;7.43;5.40;;;12.40;99.90;;;;;;5005187;28;20640;-61
2021/08/17 02:19:57;;;;;;;6.77;5.20;;;12.30;99.90;;;;;;5013813;28;20175;-61
2021/08/17 02:22:24;;;;;;;9.63;5.73;;;12.30;99.90;;;;;;5006710;28;20577;-61
2021/08/17 02:24:50;;;;;;;6.13;5.10;;;12.30;99.90;;;;;;4994728;28;20637;-61
2021/08/17 02:27:15;;;;;;;5.60;5.00;;;12.20;99.90;;;;;;4995652;28;20438;-61
2021/08/17 02:29:41;;;;;;;6.43;4.43;;;12.20;99.90;;;;;;4999948;28;20178;-61
2021/08/17 02:32:06;;;;;;;7.20;5.73;;;12.10;99.90;;;;;;5013746;28;20804;-61
2021/08/17 02:34:32;;;;;;;7.17;5.60;;;12.10;99.90;;;;;;5013589;28;20681;-61
2021/08/17 02:36:58;;;;;;;7.03;5.67;;;12.10;99.90;;;;;;5001167;28;20184;-60
2021/08/17 02:39:23;;;;;;;6.33;5.73;;;12.10;99.90;;;;;;5006786;28;20183;-61
2021/08/17 02:41:49;;;;;;;8.93;6.07;;;12.10;99.90;;;;;;5013642;28;20190;-61
2021/08/17 02:44:15;;;;;;;6.73;4.80;;;12.00;99.90;;;;;;5013634;28;20546;-61
2021/08/17 02:46:40;;;;;;;6.60;4.83;;;12.00;99.90;;;;;;5013244;28;20202;-61
2021/08/17 02:49:06;;;;;;;7.43;5.10;;;12.00;99.90;;;;;;5014108;28;20171;-61
2021/08/17 02:51:32;;;;;;;5.53;4.87;;;12.00;99.90;;;;;;5012186;28;20187;-61
2021/08/17 02:53:57;;;;;;;8.30;4.23;;;12.00;99.90;;;;;;5013736;28;20201;-61
2021/08/17 02:56:23;;;;;;;8.40;4.80;;;12.00;99.90;;;;;;4996256;28;20657;-61
2021/08/17 02:58:48;;;;;;;6.87;5.23;;;12.00;99.90;;;;;;4993725;28;20233;-61
2021/08/17 03:01:14;;;;;;;6.27;4.93;;;12.00;99.90;;;;;;4995025;28;20175;-61
2021/08/17 03:03:39;;;;;;;7.90;5.73;;;11.90;99.90;;;;;;4995922;28;20567;-61
2021/08/17 03:06:05;;;;;;;7.60;5.10;;;11.80;99.90;;;;;;5007959;28;20186;-61
2021/08/17 03:08:30;;;;;;;7.80;4.97;;;11.80;99.90;;;;;;4993441;28;20184;-61
2021/08/17 03:10:56;;;;;;;9.80;5.53;;;11.90;99.90;;;;;;5005607;28;20190;-61
2021/08/17 03:13:21;;;;;;;6.83;5.30;;;11.80;99.90;;;;;;5013313;28;20218;-61
2021/08/17 03:15:47;;;;;;;7.43;4.83;;;11.70;99.90;;;;;;5013303;28;20510;-60
2021/08/17 03:18:12;;;;;;;8.27;5.70;;;11.70;99.90;;;;;;5013311;28;20174;-60
2021/08/17 03:20:38;;;;;;;6.00;5.40;;;11.70;99.90;;;;;;5012088;28;20190;-61
2021/08/17 03:23:05;;;;;;;6.27;5.07;;;11.60;99.90;;;;;;5006791;28;20203;-61
2021/08/17 03:25:30;;;;;;;6.47;4.60;;;11.70;99.90;;;;;;4993624;28;20164;-61
2021/08/17 03:27:56;;;;;;;6.57;4.87;;;11.70;99.90;;;;;;4993734;28;20438;-61
2021/08/17 03:30:24;;;;;;;8.80;5.17;;;11.70;99.90;;;;;;4993499;28;20176;-61
2021/08/17 03:32:50;;;;;;;7.47;5.10;;;11.60;99.90;;;;;;5005137;28;20470;-61
2021/08/17 03:35:17;;;;;;;9.10;5.67;;;11.60;99.90;;;;;;4998379;28;20429;-61
2021/08/17 03:37:42;;;;;;;9.43;5.60;;;11.70;99.90;;;;;;5012931;28;20384;-61
2021/08/17 03:40:11;;;;;;;10.90;5.80;;;11.70;99.90;;;;;;4994375;28;20430;-61
2021/08/17 03:42:38;;;;;;;6.87;6.10;;;11.70;99.90;;;;;;5012685;28;20280;-61
2021/08/17 03:45:06;;;;;;;11.00;5.53;;;11.70;99.90;;;;;;5006247;28;20442;-61
2021/08/17 03:47:32;;;;;;;5.80;4.93;;;11.70;99.90;;;;;;5004557;28;20969;-61
2021/08/17 03:49:57;;;;;;;5.80;4.57;;;11.70;99.90;;;;;;5006601;28;20430;-61
2021/08/17 03:52:23;;;;;;;8.10;4.97;;;11.70;99.90;;;;;;4993014;28;20400;-61
2021/08/17 03:54:48;;;;;;;8.83;4.93;;;11.80;99.90;;;;;;4997302;28;20175;-61
2021/08/17 03:57:14;;;;;;;9.00;5.80;;;11.70;99.90;;;;;;5012321;28;20175;-61
2021/08/17 03:59:40;;;;;;;7.57;5.50;;;11.70;99.90;;;;;;5008774;28;20171;-61
2021/08/17 04:02:05;;;;;;;5.20;4.70;;;11.60;99.90;;;;;;4996945;28;20172;-61
2021/08/17 04:04:31;;;;;;;5.70;4.53;;;11.50;99.90;;;;;;5000705;28;20183;-61
2021/08/17 04:06:56;;;;;;;7.30;4.90;;;11.50;99.90;;;;;;4999915;28;20184;-61
2021/08/17 04:09:22;;;;;;;9.17;5.23;;;11.40;99.90;;;;;;4992763;28;20673;-61
2021/08/17 04:11:47;;;;;;;7.63;5.50;;;11.40;99.90;;;;;;5011439;28;20194;-61
2021/08/17 04:14:13;;;;;;;6.77;5.53;;;11.30;99.90;;;;;;5011652;28;20198;-61
2021/08/17 04:16:38;;;;;;;8.60;5.63;;;11.30;99.90;;;;;;5000378;28;20174;-61
2021/08/17 04:19:04;;;;;;;8.07;6.10;;;11.30;99.90;;;;;;5012030;28;20173;-61
2021/08/17 04:21:30;;;;;;;8.00;5.87;;;11.20;99.90;;;;;;5012245;28;20248;-61
2021/08/17 04:23:57;;;;;;;5.83;4.73;;;11.30;99.90;;;;;;5021253;23;20219;-62
2021/08/17 04:26:23;;;;;;;7.37;4.93;;;11.40;99.90;;;;;;4996040;28;20171;-63
2021/08/17 04:28:49;;;;;;;6.63;5.63;;;11.40;99.90;;;;;;5011613;28;20454;-62
2021/08/17 04:31:14;;;;;;;6.00;4.93;;;11.50;99.90;;;;;;5008949;28;20837;-62
2021/08/17 04:33:40;;;;;;;10.93;4.63;;;11.60;99.90;;;;;;5007318;28;20285;-62
2021/08/17 04:36:05;;;;;;;9.47;6.20;;;11.60;99.90;;;;;;4992721;28;20202;-62
2021/08/17 04:38:31;;;;;;;8.23;5.33;;;11.60;99.90;;;;;;4992230;28;20660;-62
2021/08/17 04:40:56;;;;;;;6.47;5.80;;;11.60;99.90;;;;;;4992487;28;20633;-62
2021/08/17 04:43:22;;;;;;;7.43;5.50;;;11.60;99.90;;;;;;4992257;28;20195;-63
2021/08/17 04:45:49;;;;;;;7.20;5.47;;;11.40;99.90;;;;;;4992462;28;20222;-62
2021/08/17 04:48:15;;;;;;;8.00;6.37;;;11.40;99.90;;;;;;4992365;28;20171;-62
2021/08/17 04:50:40;;;;;;;5.70;5.10;;;11.40;99.90;;;;;;4992198;28;20566;-62
2021/08/17 04:53:06;;;;;;;11.60;5.70;;;11.40;99.90;;;;;;4994222;28;20265;-62
2021/08/17 04:55:31;;;;;;;7.63;6.33;;;11.30;99.90;;;;;;4978932;28;20260;-62
2021/08/17 04:57:58;;;;;;;11.37;6.00;;;11.40;99.90;;;;;;4996301;28;20168;-63
2021/08/17 05:00:27;;;;;;;8.93;6.17;;;11.50;99.90;;;;;;4996795;28;20186;-62
2021/08/17 05:02:54;;;;;;;9.77;5.47;;;11.70;99.90;;;;;;4996187;28;20438;-63
2021/08/17 05:05:20;;;;;;;6.80;6.00;;;11.80;99.90;;;;;;4996232;28;20414;-63
2021/08/17 05:07:46;;;;;;;5.47;4.67;;;11.90;99.90;;;;;;4996152;28;20920;-62
2021/08/17 05:10:15;;;;;;;7.47;5.30;;;11.90;99.90;;;;;;5000484;28;20446;-63
2021/08/17 05:12:42;;;;;;;6.67;5.43;;;11.90;99.90;;;;;;5003007;28;20227;-63
2021/08/17 05:15:08;;;;;;;7.67;6.80;;;12.00;99.90;;;;;;4996015;28;20419;-62
2021/08/17 05:17:34;;;;;;;9.53;5.73;;;12.10;99.90;;;;;;4996014;28;20498;-63
2021/08/17 05:20:01;;;;;;;7.20;6.07;;;12.30;99.90;;;;;;4996734;28;20437;-63
2021/08/17 05:22:26;;;;;;;6.83;6.13;;;12.40;99.90;;;;;;5007686;28;20499;-63
2021/08/17 05:24:52;;;;;;;8.73;6.67;;;12.50;99.90;;;;;;4995858;28;20824;-63
2021/08/17 05:27:18;;;;;;;7.87;5.73;;;12.60;99.90;;;;;;4995681;28;20179;-63
2021/08/17 05:29:43;;;;;;;7.57;5.20;;;12.70;99.90;;;;;;4995458;28;20176;-63
2021/08/17 05:32:09;;;;;;;8.37;5.53;;;12.80;99.90;;;;;;4995526;28;20581;-62
2021/08/17 05:34:35;;;;;;;10.53;6.30;;;12.90;99.90;;;;;;4995717;28;20160;-63
2021/08/17 05:37:01;;;;;;;7.67;6.50;;;13.10;99.90;;;;;;4995667;28;20168;-63
2021/08/17 05:39:26;;;;;;;10.73;6.50;;;13.10;99.90;;;;;;4995240;28;20484;-63
2021/08/17 05:41:52;;;;;;;6.67;5.77;;;13.10;99.90;;;;;;4995256;28;20525;-63
2021/08/17 05:44:17;;;;;;;7.83;7.03;;;13.20;99.90;;;;;;4995309;28;20199;-63
2021/08/17 05:46:44;;;;;;;8.50;5.90;;;13.30;99.90;;;;;;4995432;28;20209;-62
2021/08/17 05:49:10;;;;;;;7.37;5.60;;;13.30;99.90;;;;;;4995154;28;20176;-63
2021/08/17 05:51:35;;;;;;;6.63;5.93;;;13.50;99.90;;;;;;4999633;28;20552;-63
2021/08/17 05:54:01;;;;;;;6.87;5.80;;;13.60;99.90;;;;;;4995079;28;20627;-63
2021/08/17 05:56:26;;;;;;;4.97;4.37;;;13.70;99.90;;;;;;4995227;28;20246;-62
2021/08/17 05:58:52;;;;;;;6.67;5.47;;;13.80;99.90;;;;;;4994626;28;20182;-63
2021/08/17 06:01:17;;;;;;;7.73;5.50;;;14.00;99.90;;;;;;5013620;28;20179;-63
2021/08/17 06:03:43;;;;;;;7.30;6.20;;;14.10;99.90;;;;;;5014074;28;20195;-63
2021/08/17 06:06:08;;;;;;;7.33;5.50;;;14.20;99.90;;;;;;5009525;28;20178;-63
2021/08/17 06:08:34;;;;;;;7.53;6.50;;;14.30;99.90;;;;;;5014265;28;20198;-63
2021/08/17 06:10:59;;;;;;;8.20;6.43;;;14.50;99.90;;;;;;5002354;28;20667;-61
2021/08/17 06:13:27;;;;;;;8.17;6.00;;;14.80;99.90;;;;;;4997613;28;20281;-62
2021/08/17 06:15:52;;;;;;;7.83;5.67;;;15.00;99.90;;;;;;5007469;28;20237;-60
2021/08/17 06:18:18;;;;;;;6.43;5.83;;;15.20;99.90;;;;;;5005531;28;20430;-61
2021/08/17 06:20:43;;;;;;;7.43;5.90;;;15.50;99.90;;;;;;4994699;28;20641;-62
2021/08/17 06:23:09;;;;;;;7.00;5.30;;;15.50;99.90;;;;;;4994464;28;20215;-61
2021/08/17 06:25:35;;;;;;;6.80;5.67;;;15.50;99.90;;;;;;4994816;28;20229;-63
2021/08/17 06:28:05;;;;;;;6.90;6.07;;;15.60;99.90;;;;;;4992267;28;20660;-63
2021/08/17 06:30:31;;;;;;;6.80;5.10;;;15.40;99.90;;;;;;4996036;28;20562;-63
2021/08/17 06:32:57;;;;;;;11.90;5.63;;;15.30;99.90;;;;;;4994544;28;20573;-63
2021/08/17 06:35:23;;;;;;;11.63;5.53;;;15.10;99.90;;;;;;4994173;28;20633;-63
2021/08/17 06:37:48;;;;;;;8.93;5.73;;;14.90;99.90;;;;;;4994463;28;20171;-63
2021/08/17 06:40:14;;;;;;;9.30;6.47;;;14.80;99.90;;;;;;4994253;28;20892;-63
2021/08/17 06:42:40;;;;;;;6.77;6.10;;;14.60;99.90;;;;;;4994496;28;20681;-63
2021/08/17 06:45:06;;;;;;;7.40;5.97;;;14.50;99.90;;;;;;4995441;28;20183;-63
2021/08/17 06:47:31;;;;;;;5.97;5.47;;;14.50;99.90;;;;;;4994339;28;20555;-63
2021/08/17 06:49:57;;;;;;;7.10;5.60;;;14.80;99.90;;;;;;4993938;28;20431;-63
2021/08/17 06:52:22;;;;;;;11.43;6.50;;;15.10;99.90;;;;;;4994033;28;20294;-63
2021/08/17 06:54:48;;;;;;;9.33;6.20;;;15.20;99.90;;;;;;4994133;28;20172;-63
2021/08/17 06:57:13;;;;;;;8.13;6.20;;;15.50;99.90;;;;;;4994149;28;20544;-63
2021/08/17 06:59:39;;;;;;;9.50;6.70;;;15.70;99.90;;;;;;4993898;28;20229;-63
2021/08/17 07:02:05;;;;;;;9.73;7.10;;;16.00;99.90;;;;;;4976584;28;20234;-63
2021/08/17 07:04:30;;;;;;;7.47;6.60;;;16.20;99.90;;;;;;4993832;28;20191;-63
2021/08/17 07:06:56;;;;;;;8.30;6.37;;;16.30;99.90;;;;;;4993828;28;20637;-63
2021/08/17 07:09:21;;;;;;;9.33;6.40;;;16.40;99.90;;;;;;5012478;28;20189;-63
2021/08/17 07:11:47;;;;;;;9.73;7.20;;;16.50;99.90;;;;;;4994526;28;20195;-63
2021/08/17 07:14:12;;;;;;;9.70;6.40;;;16.80;99.90;;;;;;4993727;28;20270;-63
2021/08/17 07:16:38;;;;;;;9.93;6.30;;;17.10;99.90;;;;;;4993066;28;20166;-63
2021/08/17 07:19:04;;;;;;;9.87;6.33;;;17.20;99.90;;;;;;4993326;28;20175;-63
2021/08/17 07:21:29;;;;;;;8.33;6.60;;;17.30;99.90;;;;;;4993523;28;20383;-63
2021/08/17 07:23:55;;;;;;;7.27;6.57;;;17.60;99.90;;;;;;4993407;28;20462;-63
2021/08/17 07:26:21;;;;;;;8.30;6.00;;;17.80;99.90;;;;;;4992912;28;20637;-62
2021/08/17 07:28:46;;;;;;;7.60;5.93;;;17.90;99.90;;;;;;4975783;28;20207;-63
2021/08/17 07:31:12;;;;;;;9.27;8.00;;;18.10;99.90;;;;;;4993558;28;20222;-63
2021/08/17 07:33:37;;;;;;;7.50;6.40;;;18.30;99.90;;;;;;4993434;28;20203;-63
2021/08/17 07:36:05;;;;;;;8.63;6.70;;;18.60;99.90;;;;;;4994365;28;20187;-63
2021/08/17 07:38:30;;;;;;;9.77;7.27;;;18.70;99.90;;;;;;4993362;28;20176;-63
2021/08/17 07:40:56;;;;;;;7.70;5.93;;;18.50;99.90;;;;;;4993346;28;20469;-62
2021/08/17 07:43:21;;;;;;;7.63;6.77;;;18.30;99.90;;;;;;4993227;28;20264;-62
2021/08/17 07:45:47;;;;;;;7.57;6.03;;;17.90;99.90;;;;;;4993260;28;20168;-63
2021/08/17 07:48:12;;;;;;;9.37;7.67;;;17.80;99.90;;;;;;4993131;28;20176;-62
2021/08/17 07:50:39;;;;;;;9.20;7.50;;;17.70;99.90;;;;;;4992896;28;20258;-63
2021/08/17 07:53:06;;;;;;;8.77;7.27;;;17.60;99.90;;;;;;4993029;28;20584;-63
2021/08/17 07:55:32;;;;;;;6.80;6.20;;;17.60;99.90;;;;;;4992785;28;20513;-62
2021/08/17 07:57:57;;;;;;;7.60;6.80;;;17.80;99.90;;;;;;4993062;28;20493;-62
2021/08/17 08:00:23;;;;;;;8.77;6.40;;;18.10;99.90;;;;;;4992768;28;20649;-62
2021/08/17 08:02:49;;;;;;;7.60;6.43;;;18.40;99.90;;;;;;4994188;28;20681;-61
2021/08/17 08:05:14;;;;;;;8.77;6.70;;;18.80;99.90;;;;;;4991990;28;20203;-60
2021/08/17 08:07:40;;;;;;;6.60;6.00;;;19.10;99.90;;;;;;4993022;28;20182;-61
2021/08/17 08:10:06;;;;;;;6.23;5.43;;;19.60;99.90;;;;;;5007431;28;20176;-61
2021/08/17 08:12:32;;;;;;;8.63;6.37;;;19.90;99.90;;;;;;4992687;28;20199;-60
2021/08/17 08:14:57;;;;;;;8.67;7.30;;;19.60;99.90;;;;;;4992593;28;20429;-60
2021/08/17 08:17:23;;;;;;;7.23;6.50;;;19.70;99.90;;;;;;4992743;28;20494;-61
2021/08/17 08:19:48;;;;;;;6.00;5.40;;;19.70;99.90;;;;;;4995940;28;20182;-60
2021/08/17 08:22:14;;;;;;;9.07;6.30;;;19.60;99.90;;;;;;5002057;28;20187;-61
2021/08/17 08:24:40;;;;;;;6.40;5.80;;;19.80;99.90;;;;;;4992518;28;20214;-61
2021/08/17 08:27:05;;;;;;;7.57;6.77;;;20.10;99.90;;;;;;5004249;28;20187;-61
2021/08/17 08:29:31;;;;;;;7.87;6.53;;;20.70;99.90;;;;;;5001306;28;20179;-61
2021/08/17 08:31:57;;;;;;;6.83;5.77;;;21.20;99.90;;;;;;4992682;28;20191;-61
2021/08/17 08:34:23;;;;;;;6.17;5.63;;;21.00;99.70;;;;;;4991256;28;20223;-60
2021/08/17 08:36:49;;;;;;;6.53;5.80;;;20.50;99.90;;;;;;4992785;28;20183;-61
2021/08/17 08:39:16;;;;;;;7.57;6.87;;;19.90;99.90;;;;;;4999237;28;20167;-61
2021/08/17 08:41:44;;;;;;;7.30;6.00;;;19.50;99.90;;;;;;4992488;28;20407;-59
2021/08/17 08:44:09;;;;;;;7.70;6.40;;;19.70;99.90;;;;;;4992280;28;20443;-60
2021/08/17 08:46:36;;;;;;;9.63;6.60;;;19.40;99.90;;;;;;4992388;28;20904;-61
2021/08/17 08:49:03;;;;;;;6.10;5.50;;;19.30;99.90;;;;;;4992003;28;20172;-61
2021/08/17 08:51:28;;;;;;;6.40;5.80;;;19.40;99.90;;;;;;5005352;28;21012;-60
2021/08/17 08:53:54;;;;;;;7.90;6.40;;;19.50;99.90;;;;;;5011783;28;20469;-61
2021/08/17 08:56:19;;;;;;;8.43;6.10;;;19.50;99.90;;;;;;5012073;28;20176;-61
2021/08/17 08:58:45;;;;;;;6.10;5.50;;;19.60;99.90;;;;;;5011743;28;20172;-61
2021/08/17 09:01:12;;;;;;;7.30;5.90;;;19.50;99.90;;;;;;5006432;28;20173;-61
2021/08/17 09:03:44;;;;;;;7.53;5.90;;;19.50;99.90;;;;;;4991627;28;20207;-61
2021/08/17 09:06:20;;;;;;;8.07;5.83;;;20.00;99.90;;;;;;4991366;28;20438;-61
2021/08/17 09:08:47;;;;;;;7.37;5.13;;;20.40;99.90;;;;;;4991871;28;20457;-63
2021/08/17 09:11:17;;;;;;;9.30;5.63;;;20.70;99.90;;;;;;4999585;28;20449;-61
2021/08/17 09:13:43;;;;;;;10.20;6.17;;;21.10;99.10;;;;;;4991800;28;20901;-61
2021/08/17 09:16:29;;;;;;;6.30;5.70;;;22.00;98.20;;;;;;4992392;28;20442;-61
2021/08/17 09:18:56;;;;;;;6.70;5.80;;;22.90;96.50;;;;;;4992810;28;20234;-61
2021/08/17 09:21:39;;;;;;;6.70;5.90;;;23.10;96.00;;;;;;4993486;28;20414;-61
2021/08/17 09:24:28;;;;;;;6.70;5.77;;;23.80;94.00;;;;;;4993734;28;20458;-61
2021/08/17 09:26:57;;;;;;;6.67;5.97;;;24.20;91.50;;;;;;4993612;28;20779;-61
2021/08/17 09:29:25;;;;;;;6.93;5.83;;;24.90;90.70;;;;;;4992167;28;20407;-61
2021/08/17 09:31:52;;;;;;;6.93;6.23;;;25.30;86.50;;;;;;4992453;28;20403;-61
2021/08/17 09:34:19;;;;;;;6.40;5.23;;;25.00;85.70;;;;;;4992748;28;20989;-61
2021/08/17 09:36:45;;;;;;;6.60;5.33;;;24.80;84.70;;;;;;4992308;28;20428;-61
2021/08/17 09:39:25;;;;;;;5.93;5.30;;;25.20;84.10;;;;;;4993499;28;20514;-61
2021/08/17 09:41:51;;;;;;;5.70;5.20;;;25.50;82.10;;;;;;4995972;28;20422;-61
2021/08/17 09:44:19;;;;;;;6.00;5.40;;;25.00;80.40;;;;;;4996773;28;20477;-61
2021/08/17 09:46:44;;;;;;;7.33;6.60;;;25.00;80.60;;;;;;4978860;28;20176;-62
2021/08/17 09:49:19;;;;;;;6.57;5.37;;;24.00;82.30;;;;;;4995798;28;20800;-61
2021/08/17 09:51:45;;;;;;;6.43;5.87;;;23.80;83.40;;;;;;4996021;28;20175;-61
2021/08/17 09:54:16;;;;;;;6.00;5.40;;;23.70;82.10;;;;;;4995888;28;20822;-62
2021/08/17 09:56:42;;;;;;;5.27;4.77;;;23.30;80.70;;;;;;4980105;28;20175;-60
2021/08/17 09:59:18;;;;;;;7.70;5.60;;;24.00;79.20;;;;;;4995708;28;20951;-62
2021/08/17 10:01:44;;;;;;;5.87;5.00;;;25.20;77.50;;;;;;5002665;28;20810;-62
2021/08/17 10:04:09;;;;;;;6.43;5.80;;;25.50;74.70;;;;;;4994589;28;20454;-61
2021/08/17 10:06:36;;;;;;;5.20;4.70;;;25.00;72.90;;;;;;4994428;28;20184;-61
2021/08/17 10:09:01;;;;;;;5.70;5.00;;;25.30;74.30;;;;;;4995084;28;20175;-61
2021/08/17 10:11:27;;;;;;;6.00;5.43;;;24.10;69.30;;;;;;4997475;28;20877;-61
2021/08/17 10:13:53;;;;;;;6.50;5.20;;;23.30;71.00;;;;;;4996427;28;20290;-60
2021/08/17 10:16:19;;;;;;;7.60;4.90;;;22.80;74.80;;;;;;4996228;28;20463;-61
2021/08/17 10:18:46;;;;;;;5.93;4.73;;;21.90;77.30;;;;;;4997804;28;20447;-61
2021/08/17 10:21:16;;;;;;;6.07;4.83;;;21.40;76.70;;;;;;4995623;28;20673;-63
2021/08/17 10:23:44;;;;;;;6.00;5.00;;;20.80;79.10;;;;;;5007183;23;20498;-61
2021/08/17 10:26:29;;;;;;;5.30;4.80;;;20.40;78.40;;;;;;4974812;28;20428;-60
2021/08/17 10:28:55;;;;;;;5.30;4.80;;;20.00;82.30;;;;;;4974157;28;20419;-61
2021/08/17 10:31:31;;;;;;;6.20;5.60;;;19.80;81.00;;;;;;4973064;28;20428;-61
2021/08/17 10:34:07;;;;;;;5.40;4.60;;;20.30;84.40;;;;;;4965443;28;20716;-61
2021/08/17 10:36:41;;;;;;;5.33;4.43;;;21.60;80.60;;;;;;4971933;28;20438;-60
2021/08/17 10:39:26;;;;;;;4.87;4.20;;;22.60;76.60;;;;;;4973965;28;20444;-60
2021/08/17 10:41:53;;;;;;;4.60;4.20;;;22.60;75.80;;;;;;4974445;28;20787;-61
2021/08/17 10:44:24;;;;;;;5.07;4.60;;;22.20;76.00;;;;;;4974500;28;20454;-60
2021/08/17 10:46:52;;;;;;;5.17;4.67;;;22.00;75.10;;;;;;4974622;28;20438;-60
2021/08/17 10:49:30;;;;;;;3.80;3.50;;;22.80;76.60;;;;;;4974087;28;20443;-61
2021/08/17 10:52:00;;;;;;;5.27;4.70;;;24.50;72.90;;;;;;4973629;28;20956;-60
2021/08/17 10:54:25;;;;;;;5.07;4.00;;;24.90;68.60;;;;;;4974445;28;20447;-61
2021/08/17 10:56:51;;;;;;;4.90;4.40;;;27.00;63.70;;;;;;4974126;28;20438;-61
2021/08/17 10:59:36;;;;;;;5.30;4.80;;;28.90;62.20;;;;;;4968680;28;20788;-61
2021/08/17 11:02:01;;;;;;;5.27;4.77;;;30.40;57.00;;;;;;4973311;28;20186;-61
2021/08/17 11:04:40;;;;;;;4.07;3.73;;;30.50;53.30;;;;;;4973774;28;20451;-61
2021/08/17 11:07:25;;;;;;;4.30;3.33;;;30.90;50.90;;;;;;4953552;28;20184;-59
2021/08/17 11:09:52;;;;;;;5.97;4.63;;;30.50;49.50;;;;;;4966116;28;20431;-59
2021/08/17 11:12:18;;;;;;;3.97;3.60;;;28.40;50.40;;;;;;4973962;28;20459;-58
2021/08/17 11:14:45;;;;;;;4.00;3.67;;;27.60;50.30;;;;;;4973383;28;20467;-59
2021/08/17 11:17:13;;;;;;;3.47;3.17;;;26.70;49.50;;;;;;4973235;28;20440;-59
2021/08/17 11:19:47;;;;;;;4.87;4.37;;;27.40;49.10;;;;;;4965418;28;20440;-59
2021/08/17 11:22:15;;;;;;;3.47;3.17;;;27.20;49.60;;;;;;4973785;28;20446;-59
2021/08/17 11:24:51;;;;;;;6.67;4.40;;;27.40;49.00;;;;;;4973333;28;20467;-60
2021/08/17 11:27:24;;;;;;;3.80;3.50;;;27.40;50.30;;;;;;4973387;28;20805;-59
2021/08/17 11:29:52;;;;;;;7.83;7.07;;;28.60;49.70;;;;;;4973191;28;20941;-59
2021/08/17 11:32:34;;;;;;;3.80;3.47;;;29.80;46.60;;;;;;4973768;28;20463;-57
2021/08/17 11:35:04;;;;;;;3.63;3.33;;;30.70;47.10;;;;;;4959246;28;20471;-59
2021/08/17 11:37:31;;;;;;;4.80;3.80;;;31.80;43.80;;;;;;4972495;28;20443;-60
2021/08/17 11:39:59;;;;;;;4.20;3.90;;;32.20;43.60;;;;;;4972837;28;20436;-60
2021/08/17 11:42:28;;;;;;;3.70;3.40;;;32.30;43.50;;;;;;4971586;28;21091;-60
2021/08/17 11:45:06;;;;;;;5.17;4.77;;;33.60;42.50;;;;;;4958206;28;20933;-57
2021/08/17 11:47:32;;;;;;;4.53;4.00;;;33.40;40.80;;;;;;4972112;28;20944;-57
2021/08/17 11:50:03;;;;;;;5.33;4.40;;;33.60;39.60;;;;;;4972900;28;20466;-57
2021/08/17 11:52:37;;;;;;;4.73;4.33;;;33.60;40.10;;;;;;4972937;28;20558;-60
2021/08/17 11:55:10;;;;;;;5.00;4.60;;;34.60;39.70;;;;;;4959382;28;20442;-62
2021/08/17 11:57:48;;;;;;;6.83;4.70;;;36.50;38.40;;;;;;4973193;28;20444;-60
2021/08/17 12:00:19;;;;;;;4.80;4.40;;;36.20;36.60;;;;;;4968086;28;20435;-59
2021/08/17 12:02:50;;;;;;;5.03;4.63;;;36.30;36.90;;;;;;4972215;28;20439;-60
2021/08/17 12:05:18;;;;;;;5.00;4.60;;;36.10;36.30;;;;;;4973092;28;20443;-61
2021/08/17 12:07:46;;;;;;;4.27;3.97;;;36.60;36.50;;;;;;4973160;28;20435;-56
2021/08/17 12:10:22;;;;;;;7.83;5.63;;;37.40;36.00;;;;;;4972919;28;20937;-56
2021/08/17 12:13:13;;;;;;;5.20;4.80;;;37.00;35.90;;;;;;4972060;28;21203;-57
2021/08/17 12:15:46;;;;;;;6.33;5.83;;;36.70;34.80;;;;;;4971218;28;20435;-59
2021/08/17 12:18:25;;;;;;;5.60;5.20;;;35.80;36.10;;;;;;4972998;28;20436;-63
2021/08/17 12:20:53;;;;;;;4.67;4.33;;;35.30;36.40;;;;;;4972963;28;20427;-57
2021/08/17 12:23:20;;;;;;;5.67;5.17;;;36.90;34.90;;;;;;4972521;28;20474;-60
2021/08/17 12:25:46;;;;;;;6.00;5.40;;;34.50;36.10;;;;;;4972580;28;20506;-57
2021/08/17 12:28:25;;;;;;;5.83;5.33;;;33.50;37.30;;;;;;4972908;28;20578;-56
2021/08/17 12:31:15;;;;;;;5.67;5.23;;;34.20;37.80;;;;;;4972788;28;20985;-58
2021/08/17 12:33:55;;;;;;;6.90;5.10;;;33.70;37.90;;;;;;4963744;28;20463;-61
2021/08/17 12:36:37;;;;;;;6.70;6.10;;;36.50;36.20;;;;;;4972766;28;20442;-60
2021/08/17 12:39:17;;;;;;;6.17;5.43;;;37.40;35.10;;;;;;4941194;28;20427;-59
2021/08/17 12:41:49;;;;;;;5.80;5.33;;;38.30;33.50;;;;;;4963039;28;20476;-60
2021/08/17 12:44:24;;;;;;;5.40;5.00;;;36.20;34.80;;;;;;4968299;28;20483;-59
2021/08/17 12:47:28;;;;;;;6.47;5.97;;;37.20;34.80;;;;;;4971611;28;20470;-57